Portada
METAR-TAF:

METAR-TAF

Aeropuertos :

Toulouse, Francia

Aeropuerto de Toulouse-Blagnac

latitud: 43-38N, longitud: 001-22E, altitud: 152 m

Observación

El informe se hizo hace 43 minutos, a las 04:00 UTC
Viento 5 kt del norte-noroeste, variando entre noroeste y norte-noreste
Temperatura 18°C
Humedad 77%
Presión 1013 hPa
Visibilidad 10 km o más
Cielo nuboso a una altura de 3700 ft

METAR: LFBO 210400Z AUTO 34005KT 320V020 9999 BKN037 18/14 Q1013 NOSIG

Hora: 06:43 (04:43 UTC)

Pronóstico

El informe se hizo hace 5 horas y 43 minutos, a las 23:00 UTC
Pronóstico válido del 21 a las 00 UTC al 22 a las 06 UTC
Viento 6 kt del noroeste
Visibilidad 10 km o más
Cielo nuboso a una altura de 4000 ft
Cielo nuboso a una altura de 8000 ft
Probabilidad 40% :
Temporalmente
del 21 a las 06 UTC al 21 a las 09 UTC
Visibilidad: 3000 m
Cielo nuboso a una altura de 1300 ft
lluvia ligera

TAF: LFBO 202300Z 2100/2206 31006KT 9999 BKN040 BKN080 PROB40 TEMPO 2106/2109 3000 -RA BKN013

Observaciones y pronósticos meteorológicos de más de 4000 aeropuertos (mensajes METAR y TAF).

Los puntos amarillos y rojos representan las estaciones disponibles.

Ponga el ratón en el punto deseado para ver el nombre de la estación.

Haga clic para ver las observaciones y los pronósticos meteorológicos.

Para cambiar el mapa : haga clic en los botones verdes con una cruz de color negro para hacer un zoom, en el botón verde con un guión para alejar o en las flechas verdes para mapas adyacentes.


METAR-TAF: